sensor_id;sensor_type;location;lat;lon;timestamp;temperature;humidity
52965;DHT22;42923;53.220;6.528;2023-10-09T00:01:05;13.70;99.90
52965;DHT22;42923;53.220;6.528;2023-10-09T00:03:44;13.50;99.90
52965;DHT22;42923;53.220;6.528;2023-10-09T00:06:10;13.50;99.90
52965;DHT22;42923;53.220;6.528;2023-10-09T00:08:39;13.50;99.90
52965;DHT22;42923;53.220;6.528;2023-10-09T00:11:10;13.50;99.90
52965;DHT22;42923;53.220;6.528;2023-10-09T00:13:42;13.50;99.90
52965;DHT22;42923;53.220;6.528;2023-10-09T00:16:19;13.60;99.90
52965;DHT22;42923;53.220;6.528;2023-10-09T00:19:06;13.50;99.90
52965;DHT22;42923;53.220;6.528;2023-10-09T00:21:47;13.60;99.90
52965;DHT22;42923;53.220;6.528;2023-10-09T00:24:13;13.60;99.90
52965;DHT22;42923;53.220;6.528;2023-10-09T00:26:55;13.60;99.90
52965;DHT22;42923;53.220;6.528;2023-10-09T00:29:40;13.60;99.90
52965;DHT22;42923;53.220;6.528;2023-10-09T00:32:11;13.60;99.90
52965;DHT22;42923;53.220;6.528;2023-10-09T00:34:57;13.60;99.90
52965;DHT22;42923;53.220;6.528;2023-10-09T00:37:25;13.60;99.90
52965;DHT22;42923;53.220;6.528;2023-10-09T00:39:52;13.60;99.90
52965;DHT22;42923;53.220;6.528;2023-10-09T00:42:24;13.70;99.90
52965;DHT22;42923;53.220;6.528;2023-10-09T00:45:02;13.60;99.90
52965;DHT22;42923;53.220;6.528;2023-10-09T00:47:33;13.70;99.90
52965;DHT22;42923;53.220;6.528;2023-10-09T00:50:03;13.70;99.90
52965;DHT22;42923;53.220;6.528;2023-10-09T00:52:37;13.60;99.90
52965;DHT22;42923;53.220;6.528;2023-10-09T00:55:12;13.70;99.90
52965;DHT22;42923;53.220;6.528;2023-10-09T00:57:46;13.90;99.90
52965;DHT22;42923;53.220;6.528;2023-10-09T01:00:26;13.70;99.90
52965;DHT22;42923;53.220;6.528;2023-10-09T01:03:15;13.70;99.90
52965;DHT22;42923;53.220;6.528;2023-10-09T01:05:42;13.70;99.90
52965;DHT22;42923;53.220;6.528;2023-10-09T01:08:19;13.70;99.90
52965;DHT22;42923;53.220;6.528;2023-10-09T01:11:16;13.80;99.90
52965;DHT22;42923;53.220;6.528;2023-10-09T01:13:48;13.70;99.90
52965;DHT22;42923;53.220;6.528;2023-10-09T01:16:15;13.70;99.90
52965;DHT22;42923;53.220;6.528;2023-10-09T01:18:42;13.70;99.90
52965;DHT22;42923;53.220;6.528;2023-10-09T01:21:09;13.90;99.90
52965;DHT22;42923;53.220;6.528;2023-10-09T01:23:41;13.80;99.90
52965;DHT22;42923;53.220;6.528;2023-10-09T01:26:24;13.70;99.90
52965;DHT22;42923;53.220;6.528;2023-10-09T01:28:50;13.70;99.90
52965;DHT22;42923;53.220;6.528;2023-10-09T01:31:16;13.80;99.90
52965;DHT22;42923;53.220;6.528;2023-10-09T01:33:43;13.90;99.90
52965;DHT22;42923;53.220;6.528;2023-10-09T01:36:10;13.70;99.90
52965;DHT22;42923;53.220;6.528;2023-10-09T01:38:40;13.70;99.90
52965;DHT22;42923;53.220;6.528;2023-10-09T01:41:15;13.70;99.90
52965;DHT22;42923;53.220;6.528;2023-10-09T01:43:42;13.70;99.90
52965;DHT22;42923;53.220;6.528;2023-10-09T01:46:11;13.70;99.90
52965;DHT22;42923;53.220;6.528;2023-10-09T01:48:37;13.70;99.90
52965;DHT22;42923;53.220;6.528;2023-10-09T01:51:06;13.70;99.90
52965;DHT22;42923;53.220;6.528;2023-10-09T01:53:34;13.70;99.90
52965;DHT22;42923;53.220;6.528;2023-10-09T01:56:11;13.70;99.90
52965;DHT22;42923;53.220;6.528;2023-10-09T01:58:43;13.70;99.90
52965;DHT22;42923;53.220;6.528;2023-10-09T02:01:13;13.70;99.90
52965;DHT22;42923;53.220;6.528;2023-10-09T02:03:40;13.70;99.90
52965;DHT22;42923;53.220;6.528;2023-10-09T02:06:08;13.70;99.90
52965;DHT22;42923;53.220;6.528;2023-10-09T02:08:52;13.70;99.90
52965;DHT22;42923;53.220;6.528;2023-10-09T02:11:19;13.60;99.90
52965;DHT22;42923;53.220;6.528;2023-10-09T02:14:01;13.70;99.90
52965;DHT22;42923;53.220;6.528;2023-10-09T02:16:27;13.70;99.90
52965;DHT22;42923;53.220;6.528;2023-10-09T02:19:07;13.70;99.90
52965;DHT22;42923;53.220;6.528;2023-10-09T02:21:52;13.60;99.90
52965;DHT22;42923;53.220;6.528;2023-10-09T02:24:19;13.60;99.90
52965;DHT22;42923;53.220;6.528;2023-10-09T02:27:03;13.60;99.90
52965;DHT22;42923;53.220;6.528;2023-10-09T02:29:32;13.60;99.90
52965;DHT22;42923;53.220;6.528;2023-10-09T02:32:00;13.60;99.90
52965;DHT22;42923;53.220;6.528;2023-10-09T02:34:39;13.60;99.90
52965;DHT22;42923;53.220;6.528;2023-10-09T02:37:04;13.50;99.90
52965;DHT22;42923;53.220;6.528;2023-10-09T02:39:32;13.60;99.90
52965;DHT22;42923;53.220;6.528;2023-10-09T02:42:12;13.50;99.90
52965;DHT22;42923;53.220;6.528;2023-10-09T02:44:38;13.40;99.90
52965;DHT22;42923;53.220;6.528;2023-10-09T02:47:15;13.40;99.90
52965;DHT22;42923;53.220;6.528;2023-10-09T02:49:55;13.40;99.90
52965;DHT22;42923;53.220;6.528;2023-10-09T02:52:29;13.50;99.90
52965;DHT22;42923;53.220;6.528;2023-10-09T02:54:59;13.40;99.90
52965;DHT22;42923;53.220;6.528;2023-10-09T02:57:27;13.50;99.90
52965;DHT22;42923;53.220;6.528;2023-10-09T03:00:02;13.40;99.90
52965;DHT22;42923;53.220;6.528;2023-10-09T03:02:29;13.40;99.90
52965;DHT22;42923;53.220;6.528;2023-10-09T03:04:57;13.40;99.90
52965;DHT22;42923;53.220;6.528;2023-10-09T03:07:25;13.50;99.90
52965;DHT22;42923;53.220;6.528;2023-10-09T03:09:50;13.50;99.90
52965;DHT22;42923;53.220;6.528;2023-10-09T03:12:16;13.60;99.90
52965;DHT22;42923;53.220;6.528;2023-10-09T03:14:44;13.60;99.90
52965;DHT22;42923;53.220;6.528;2023-10-09T03:17:10;13.60;99.90
52965;DHT22;42923;53.220;6.528;2023-10-09T03:19:40;13.60;99.90
52965;DHT22;42923;53.220;6.528;2023-10-09T03:22:07;13.80;99.90
52965;DHT22;42923;53.220;6.528;2023-10-09T03:24:37;13.70;99.90
52965;DHT22;42923;53.220;6.528;2023-10-09T03:27:03;13.80;99.90
52965;DHT22;42923;53.220;6.528;2023-10-09T03:29:29;13.80;99.90
52965;DHT22;42923;53.220;6.528;2023-10-09T03:31:55;13.80;99.90
52965;DHT22;42923;53.220;6.528;2023-10-09T03:34:22;13.90;99.90
52965;DHT22;42923;53.220;6.528;2023-10-09T03:36:49;13.90;99.90
52965;DHT22;42923;53.220;6.528;2023-10-09T03:39:25;13.90;99.90
52965;DHT22;42923;53.220;6.528;2023-10-09T03:42:00;14.00;99.90
52965;DHT22;42923;53.220;6.528;2023-10-09T03:44:31;14.10;99.90
52965;DHT22;42923;53.220;6.528;2023-10-09T03:46:59;14.10;99.90
52965;DHT22;42923;53.220;6.528;2023-10-09T03:49:25;14.20;99.90
52965;DHT22;42923;53.220;6.528;2023-10-09T03:51:52;14.20;99.90
52965;DHT22;42923;53.220;6.528;2023-10-09T03:54:18;14.30;99.90
52965;DHT22;42923;53.220;6.528;2023-10-09T03:56:48;14.30;99.90
52965;DHT22;42923;53.220;6.528;2023-10-09T03:59:20;14.40;99.90
52965;DHT22;42923;53.220;6.528;2023-10-09T04:01:49;14.50;99.90
52965;DHT22;42923;53.220;6.528;2023-10-09T04:04:16;14.60;99.90
52965;DHT22;42923;53.220;6.528;2023-10-09T04:06:42;14.70;99.90
52965;DHT22;42923;53.220;6.528;2023-10-09T04:09:09;14.80;99.90
52965;DHT22;42923;53.220;6.528;2023-10-09T04:11:53;14.90;99.90
52965;DHT22;42923;53.220;6.528;2023-10-09T04:14:34;15.10;99.90
52965;DHT22;42923;53.220;6.528;2023-10-09T04:17:01;15.10;99.90
52965;DHT22;42923;53.220;6.528;2023-10-09T04:19:31;15.20;99.90
52965;DHT22;42923;53.220;6.528;2023-10-09T04:22:14;15.30;99.90
52965;DHT22;42923;53.220;6.528;2023-10-09T04:24:53;15.30;99.90
52965;DHT22;42923;53.220;6.528;2023-10-09T04:27:18;15.40;99.90
52965;DHT22;42923;53.220;6.528;2023-10-09T04:29:52;15.40;99.90
52965;DHT22;42923;53.220;6.528;2023-10-09T04:32:20;15.50;99.90
52965;DHT22;42923;53.220;6.528;2023-10-09T04:34:50;15.50;99.90
52965;DHT22;42923;53.220;6.528;2023-10-09T04:37:36;15.50;99.90
52965;DHT22;42923;53.220;6.528;2023-10-09T04:40:04;15.60;99.90
52965;DHT22;42923;53.220;6.528;2023-10-09T04:42:59;15.50;99.90
52965;DHT22;42923;53.220;6.528;2023-10-09T04:45:25;15.60;99.90
52965;DHT22;42923;53.220;6.528;2023-10-09T04:48:10;15.60;99.90
52965;DHT22;42923;53.220;6.528;2023-10-09T04:50:37;15.60;99.90
52965;DHT22;42923;53.220;6.528;2023-10-09T04:53:14;15.70;99.90
52965;DHT22;42923;53.220;6.528;2023-10-09T04:55:40;15.60;99.90
52965;DHT22;42923;53.220;6.528;2023-10-09T04:58:10;15.60;99.90
52965;DHT22;42923;53.220;6.528;2023-10-09T05:00:49;15.70;99.90
52965;DHT22;42923;53.220;6.528;2023-10-09T05:03:29;15.70;99.90
52965;DHT22;42923;53.220;6.528;2023-10-09T05:06:12;15.70;99.90
52965;DHT22;42923;53.220;6.528;2023-10-09T05:08:50;15.70;99.90
52965;DHT22;42923;53.220;6.528;2023-10-09T05:11:22;15.80;99.90
52965;DHT22;42923;53.220;6.528;2023-10-09T05:14:19;15.80;99.90
52965;DHT22;42923;53.220;6.528;2023-10-09T05:16:53;15.80;99.90
52965;DHT22;42923;53.220;6.528;2023-10-09T05:19:27;15.80;99.90
52965;DHT22;42923;53.220;6.528;2023-10-09T05:22:11;15.80;99.90
52965;DHT22;42923;53.220;6.528;2023-10-09T05:24:58;15.80;99.90
52965;DHT22;42923;53.220;6.528;2023-10-09T05:27:26;15.80;99.90
52965;DHT22;42923;53.220;6.528;2023-10-09T05:30:12;15.80;99.90
52965;DHT22;42923;53.220;6.528;2023-10-09T05:32:54;15.80;99.90
52965;DHT22;42923;53.220;6.528;2023-10-09T05:35:38;15.90;99.90
52965;DHT22;42923;53.220;6.528;2023-10-09T05:38:24;15.80;99.90
52965;DHT22;42923;53.220;6.528;2023-10-09T05:40:53;15.80;99.90
52965;DHT22;42923;53.220;6.528;2023-10-09T05:43:22;15.80;99.90
52965;DHT22;42923;53.220;6.528;2023-10-09T05:46:07;15.80;99.90
52965;DHT22;42923;53.220;6.528;2023-10-09T05:48:33;15.80;99.90
52965;DHT22;42923;53.220;6.528;2023-10-09T05:51:19;15.80;99.90
52965;DHT22;42923;53.220;6.528;2023-10-09T05:54:03;15.80;99.90
52965;DHT22;42923;53.220;6.528;2023-10-09T05:56:58;15.70;99.90
52965;DHT22;42923;53.220;6.528;2023-10-09T05:59:46;15.70;99.90
52965;DHT22;42923;53.220;6.528;2023-10-09T06:02:37;15.70;99.90
52965;DHT22;42923;53.220;6.528;2023-10-09T06:05:21;15.80;99.90
52965;DHT22;42923;53.220;6.528;2023-10-09T06:08:07;15.80;99.90
52965;DHT22;42923;53.220;6.528;2023-10-09T06:10:33;15.80;99.90
52965;DHT22;42923;53.220;6.528;2023-10-09T06:13:07;15.70;99.90
52965;DHT22;42923;53.220;6.528;2023-10-09T06:15:37;15.80;99.90
52965;DHT22;42923;53.220;6.528;2023-10-09T06:18:09;15.80;99.90
52965;DHT22;42923;53.220;6.528;2023-10-09T06:20:58;15.80;99.90
52965;DHT22;42923;53.220;6.528;2023-10-09T06:23:42;15.80;99.90
52965;DHT22;42923;53.220;6.528;2023-10-09T06:26:27;15.80;99.90
52965;DHT22;42923;53.220;6.528;2023-10-09T06:28:52;15.80;99.90
52965;DHT22;42923;53.220;6.528;2023-10-09T06:31:38;15.80;99.90
52965;DHT22;42923;53.220;6.528;2023-10-09T06:34:22;15.80;99.90
52965;DHT22;42923;53.220;6.528;2023-10-09T06:36:59;15.80;99.90
52965;DHT22;42923;53.220;6.528;2023-10-09T06:39:43;15.80;99.90
52965;DHT22;42923;53.220;6.528;2023-10-09T06:42:21;15.80;99.90
52965;DHT22;42923;53.220;6.528;2023-10-09T06:45:02;15.80;99.90
52965;DHT22;42923;53.220;6.528;2023-10-09T06:47:32;15.90;99.90
52965;DHT22;42923;53.220;6.528;2023-10-09T06:52:45;15.90;99.90
52965;DHT22;42923;53.220;6.528;2023-10-09T06:55:43;15.90;99.90
52965;DHT22;42923;53.220;6.528;2023-10-09T06:58:19;16.10;99.90
52965;DHT22;42923;53.220;6.528;2023-10-09T07:00:52;15.90;99.90
52965;DHT22;42923;53.220;6.528;2023-10-09T07:03:27;15.90;99.90
52965;DHT22;42923;53.220;6.528;2023-10-09T07:06:07;15.90;99.90
52965;DHT22;42923;53.220;6.528;2023-10-09T07:08:58;15.90;99.90
52965;DHT22;42923;53.220;6.528;2023-10-09T07:11:32;15.90;99.90
52965;DHT22;42923;53.220;6.528;2023-10-09T07:14:22;15.90;99.90
52965;DHT22;42923;53.220;6.528;2023-10-09T07:17:04;15.80;99.90
52965;DHT22;42923;53.220;6.528;2023-10-09T07:19:42;15.90;99.90
52965;DHT22;42923;53.220;6.528;2023-10-09T07:22:09;15.90;99.90
52965;DHT22;42923;53.220;6.528;2023-10-09T07:24:48;15.90;99.90
52965;DHT22;42923;53.220;6.528;2023-10-09T07:27:36;15.90;99.90
52965;DHT22;42923;53.220;6.528;2023-10-09T07:30:16;16.00;99.90
52965;DHT22;42923;53.220;6.528;2023-10-09T07:33:11;16.00;99.90
52965;DHT22;42923;53.220;6.528;2023-10-09T07:35:38;16.00;99.90
52965;DHT22;42923;53.220;6.528;2023-10-09T07:38:26;16.10;99.90
52965;DHT22;42923;53.220;6.528;2023-10-09T07:40:56;16.10;99.90
52965;DHT22;42923;53.220;6.528;2023-10-09T07:43:45;16.10;99.90
52965;DHT22;42923;53.220;6.528;2023-10-09T07:46:15;16.10;99.90
52965;DHT22;42923;53.220;6.528;2023-10-09T07:49:17;16.00;99.90
52965;DHT22;42923;53.220;6.528;2023-10-09T07:51:50;16.10;99.90
52965;DHT22;42923;53.220;6.528;2023-10-09T07:54:18;16.10;99.90
52965;DHT22;42923;53.220;6.528;2023-10-09T07:56:58;16.20;99.90
52965;DHT22;42923;53.220;6.528;2023-10-09T07:59:35;16.10;99.90
52965;DHT22;42923;53.220;6.528;2023-10-09T08:02:07;16.10;99.90
52965;DHT22;42923;53.220;6.528;2023-10-09T08:04:39;16.10;99.90
52965;DHT22;42923;53.220;6.528;2023-10-09T08:07:15;16.10;99.90
52965;DHT22;42923;53.220;6.528;2023-10-09T08:10:04;16.10;99.90
52965;DHT22;42923;53.220;6.528;2023-10-09T08:12:45;16.10;99.90
52965;DHT22;42923;53.220;6.528;2023-10-09T08:15:15;16.20;99.90
52965;DHT22;42923;53.220;6.528;2023-10-09T08:17:45;16.20;99.90
52965;DHT22;42923;53.220;6.528;2023-10-09T08:20:17;16.20;99.90
52965;DHT22;42923;53.220;6.528;2023-10-09T08:22:43;16.20;99.90
52965;DHT22;42923;53.220;6.528;2023-10-09T08:25:11;16.20;99.90
52965;DHT22;42923;53.220;6.528;2023-10-09T08:27:56;16.20;99.90
52965;DHT22;42923;53.220;6.528;2023-10-09T08:30:26;16.20;99.90
52965;DHT22;42923;53.220;6.528;2023-10-09T08:32:52;16.20;99.90
52965;DHT22;42923;53.220;6.528;2023-10-09T08:35:32;16.20;99.90
52965;DHT22;42923;53.220;6.528;2023-10-09T08:38:15;16.30;99.90
52965;DHT22;42923;53.220;6.528;2023-10-09T08:40:43;16.30;99.90
52965;DHT22;42923;53.220;6.528;2023-10-09T08:43:19;16.30;99.90
52965;DHT22;42923;53.220;6.528;2023-10-09T08:45:47;16.30;99.90
52965;DHT22;42923;53.220;6.528;2023-10-09T08:48:13;16.30;99.90
52965;DHT22;42923;53.220;6.528;2023-10-09T08:50:48;16.30;99.90
52965;DHT22;42923;53.220;6.528;2023-10-09T08:53:16;16.40;99.90
52965;DHT22;42923;53.220;6.528;2023-10-09T08:55:43;16.50;99.90
52965;DHT22;42923;53.220;6.528;2023-10-09T08:58:09;16.50;99.90
52965;DHT22;42923;53.220;6.528;2023-10-09T09:00:52;16.60;99.90
52965;DHT22;42923;53.220;6.528;2023-10-09T09:03:21;16.60;99.90
52965;DHT22;42923;53.220;6.528;2023-10-09T09:06:00;16.60;99.90
52965;DHT22;42923;53.220;6.528;2023-10-09T09:08:31;16.70;99.90
52965;DHT22;42923;53.220;6.528;2023-10-09T09:11:00;16.70;99.90
52965;DHT22;42923;53.220;6.528;2023-10-09T09:14:04;16.70;99.90
52965;DHT22;42923;53.220;6.528;2023-10-09T09:16:31;16.70;99.90
52965;DHT22;42923;53.220;6.528;2023-10-09T09:19:07;16.70;99.90
52965;DHT22;42923;53.220;6.528;2023-10-09T09:21:34;16.70;99.90
52965;DHT22;42923;53.220;6.528;2023-10-09T09:24:06;16.70;99.90
52965;DHT22;42923;53.220;6.528;2023-10-09T09:26:43;16.70;99.90
52965;DHT22;42923;53.220;6.528;2023-10-09T09:29:15;16.70;99.90
52965;DHT22;42923;53.220;6.528;2023-10-09T09:31:56;16.80;99.90
52965;DHT22;42923;53.220;6.528;2023-10-09T09:34:44;16.70;99.90
52965;DHT22;42923;53.220;6.528;2023-10-09T09:37:19;16.70;99.90
52965;DHT22;42923;53.220;6.528;2023-10-09T09:39:46;16.80;99.90
52965;DHT22;42923;53.220;6.528;2023-10-09T09:42:15;16.80;99.90
52965;DHT22;42923;53.220;6.528;2023-10-09T09:44:55;16.90;99.90
52965;DHT22;42923;53.220;6.528;2023-10-09T09:47:21;16.80;99.90
52965;DHT22;42923;53.220;6.528;2023-10-09T09:49:54;16.90;99.90
52965;DHT22;42923;53.220;6.528;2023-10-09T09:52:31;17.00;99.90
52965;DHT22;42923;53.220;6.528;2023-10-09T09:55:06;17.00;99.90
52965;DHT22;42923;53.220;6.528;2023-10-09T09:57:40;17.10;99.90
52965;DHT22;42923;53.220;6.528;2023-10-09T10:00:09;17.10;99.90
52965;DHT22;42923;53.220;6.528;2023-10-09T10:03:13;17.10;99.90
52965;DHT22;42923;53.220;6.528;2023-10-09T10:05:42;17.10;99.90
52965;DHT22;42923;53.220;6.528;2023-10-09T10:08:08;17.10;99.90
52965;DHT22;42923;53.220;6.528;2023-10-09T10:10:42;17.10;99.90
52965;DHT22;42923;53.220;6.528;2023-10-09T10:13:34;17.10;99.90
52965;DHT22;42923;53.220;6.528;2023-10-09T10:16:07;17.00;99.90
52965;DHT22;42923;53.220;6.528;2023-10-09T10:19:04;17.00;99.90
52965;DHT22;42923;53.220;6.528;2023-10-09T10:21:48;17.00;99.90
52965;DHT22;42923;53.220;6.528;2023-10-09T10:35:21;17.10;99.90
52965;DHT22;42923;53.220;6.528;2023-10-09T10:41:18;17.20;99.90
52965;DHT22;42923;53.220;6.528;2023-10-09T10:43:48;17.30;99.90
52965;DHT22;42923;53.220;6.528;2023-10-09T10:46:19;17.30;99.90
52965;DHT22;42923;53.220;6.528;2023-10-09T10:49:04;17.30;99.90
52965;DHT22;42923;53.220;6.528;2023-10-09T10:51:50;17.20;99.90
52965;DHT22;42923;53.220;6.528;2023-10-09T10:54:38;17.20;99.90
52965;DHT22;42923;53.220;6.528;2023-10-09T11:00:16;17.10;99.90
52965;DHT22;42923;53.220;6.528;2023-10-09T11:03:01;17.10;99.90
52965;DHT22;42923;53.220;6.528;2023-10-09T11:05:47;17.00;99.90
52965;DHT22;42923;53.220;6.528;2023-10-09T11:08:24;16.90;99.90
52965;DHT22;42923;53.220;6.528;2023-10-09T11:11:10;16.90;99.90
52965;DHT22;42923;53.220;6.528;2023-10-09T11:13:41;16.80;99.90
52965;DHT22;42923;53.220;6.528;2023-10-09T11:16:23;16.80;99.90
52965;DHT22;42923;53.220;6.528;2023-10-09T11:19:18;16.70;99.90
52965;DHT22;42923;53.220;6.528;2023-10-09T11:21:57;16.70;99.90
52965;DHT22;42923;53.220;6.528;2023-10-09T11:24:48;16.70;99.90
52965;DHT22;42923;53.220;6.528;2023-10-09T11:27:28;16.60;99.90
52965;DHT22;42923;53.220;6.528;2023-10-09T11:29:58;16.60;99.90
52965;DHT22;42923;53.220;6.528;2023-10-09T11:32:30;16.60;99.90
52965;DHT22;42923;53.220;6.528;2023-10-09T11:35:14;16.60;99.90
52965;DHT22;42923;53.220;6.528;2023-10-09T11:37:55;16.70;99.90
52965;DHT22;42923;53.220;6.528;2023-10-09T11:40:28;16.90;99.90
52965;DHT22;42923;53.220;6.528;2023-10-09T11:43:00;17.00;99.90
52965;DHT22;42923;53.220;6.528;2023-10-09T11:45:27;17.00;99.90
52965;DHT22;42923;53.220;6.528;2023-10-09T11:47:58;17.00;99.90
52965;DHT22;42923;53.220;6.528;2023-10-09T11:50:44;17.00;99.90
52965;DHT22;42923;53.220;6.528;2023-10-09T11:53:17;17.00;99.90
52965;DHT22;42923;53.220;6.528;2023-10-09T11:55:46;16.90;99.90
52965;DHT22;42923;53.220;6.528;2023-10-09T11:58:24;16.80;99.90
52965;DHT22;42923;53.220;6.528;2023-10-09T12:00:57;16.80;99.90
52965;DHT22;42923;53.220;6.528;2023-10-09T12:03:29;16.90;99.90
52965;DHT22;42923;53.220;6.528;2023-10-09T12:06:00;16.90;99.90
52965;DHT22;42923;53.220;6.528;2023-10-09T12:08:31;16.90;99.90
52965;DHT22;42923;53.220;6.528;2023-10-09T12:10:58;16.90;99.90
52965;DHT22;42923;53.220;6.528;2023-10-09T12:13:24;16.90;99.90
52965;DHT22;42923;53.220;6.528;2023-10-09T12:15:51;16.90;99.90
52965;DHT22;42923;53.220;6.528;2023-10-09T12:18:21;16.80;99.90
52965;DHT22;42923;53.220;6.528;2023-10-09T12:20:48;16.80;99.90
52965;DHT22;42923;53.220;6.528;2023-10-09T12:23:17;16.90;99.90
52965;DHT22;42923;53.220;6.528;2023-10-09T12:25:43;17.00;99.90
52965;DHT22;42923;53.220;6.528;2023-10-09T12:28:12;17.00;99.90
52965;DHT22;42923;53.220;6.528;2023-10-09T12:30:39;17.10;99.90
52965;DHT22;42923;53.220;6.528;2023-10-09T12:33:05;17.00;99.90
52965;DHT22;42923;53.220;6.528;2023-10-09T12:35:37;17.10;99.90
52965;DHT22;42923;53.220;6.528;2023-10-09T12:38:03;17.10;99.90
52965;DHT22;42923;53.220;6.528;2023-10-09T12:40:34;17.20;99.90
52965;DHT22;42923;53.220;6.528;2023-10-09T12:43:00;17.30;99.90
52965;DHT22;42923;53.220;6.528;2023-10-09T12:45:26;17.20;99.90
52965;DHT22;42923;53.220;6.528;2023-10-09T12:47:53;17.20;99.90
52965;DHT22;42923;53.220;6.528;2023-10-09T12:50:25;17.20;99.90
52965;DHT22;42923;53.220;6.528;2023-10-09T12:53:00;17.20;99.90
52965;DHT22;42923;53.220;6.528;2023-10-09T12:55:28;17.10;99.90
52965;DHT22;42923;53.220;6.528;2023-10-09T12:58:01;17.20;99.90
52965;DHT22;42923;53.220;6.528;2023-10-09T13:00:36;17.20;99.90
52965;DHT22;42923;53.220;6.528;2023-10-09T13:03:10;17.20;99.90
52965;DHT22;42923;53.220;6.528;2023-10-09T13:05:52;17.30;99.90
52965;DHT22;42923;53.220;6.528;2023-10-09T13:08:29;17.30;99.90
52965;DHT22;42923;53.220;6.528;2023-10-09T13:11:07;17.30;99.90
52965;DHT22;42923;53.220;6.528;2023-10-09T13:13:44;17.30;99.90
52965;DHT22;42923;53.220;6.528;2023-10-09T13:16:14;17.30;99.90
52965;DHT22;42923;53.220;6.528;2023-10-09T13:18:50;17.40;99.90
52965;DHT22;42923;53.220;6.528;2023-10-09T13:23:44;17.50;99.90
52965;DHT22;42923;53.220;6.528;2023-10-09T13:26:13;17.50;99.90
52965;DHT22;42923;53.220;6.528;2023-10-09T13:29:01;17.50;99.90
52965;DHT22;42923;53.220;6.528;2023-10-09T13:31:28;17.60;99.90
52965;DHT22;42923;53.220;6.528;2023-10-09T13:33:57;17.50;99.90
52965;DHT22;42923;53.220;6.528;2023-10-09T13:36:27;17.40;99.90
52965;DHT22;42923;53.220;6.528;2023-10-09T13:39:14;17.50;99.90
52965;DHT22;42923;53.220;6.528;2023-10-09T13:41:57;17.40;99.90
52965;DHT22;42923;53.220;6.528;2023-10-09T13:44:31;17.30;99.90
52965;DHT22;42923;53.220;6.528;2023-10-09T13:47:02;17.30;99.90
52965;DHT22;42923;53.220;6.528;2023-10-09T13:49:31;17.30;99.90
52965;DHT22;42923;53.220;6.528;2023-10-09T13:52:01;17.30;99.90
52965;DHT22;42923;53.220;6.528;2023-10-09T13:54:28;17.20;99.90
52965;DHT22;42923;53.220;6.528;2023-10-09T13:57:05;17.20;99.90
52965;DHT22;42923;53.220;6.528;2023-10-09T13:59:32;17.20;99.90
52965;DHT22;42923;53.220;6.528;2023-10-09T14:02:00;17.20;99.90
52965;DHT22;42923;53.220;6.528;2023-10-09T14:04:28;17.20;99.90
52965;DHT22;42923;53.220;6.528;2023-10-09T14:06:54;17.20;99.90
52965;DHT22;42923;53.220;6.528;2023-10-09T14:09:28;17.20;99.90
52965;DHT22;42923;53.220;6.528;2023-10-09T14:11:57;17.10;99.90
52965;DHT22;42923;53.220;6.528;2023-10-09T14:14:39;17.00;99.90
52965;DHT22;42923;53.220;6.528;2023-10-09T14:17:15;16.90;99.90
52965;DHT22;42923;53.220;6.528;2023-10-09T14:19:47;16.90;99.90
52965;DHT22;42923;53.220;6.528;2023-10-09T14:22:31;16.90;99.90
52965;DHT22;42923;53.220;6.528;2023-10-09T14:24:57;16.90;99.90
52965;DHT22;42923;53.220;6.528;2023-10-09T14:27:25;16.90;99.90
52965;DHT22;42923;53.220;6.528;2023-10-09T14:30:00;17.00;99.90
52965;DHT22;42923;53.220;6.528;2023-10-09T14:32:27;17.00;99.90
52965;DHT22;42923;53.220;6.528;2023-10-09T14:34:59;17.00;99.90
52965;DHT22;42923;53.220;6.528;2023-10-09T14:37:28;17.00;99.90
52965;DHT22;42923;53.220;6.528;2023-10-09T14:39:56;17.10;99.90
52965;DHT22;42923;53.220;6.528;2023-10-09T14:42:22;17.10;99.90
52965;DHT22;42923;53.220;6.528;2023-10-09T14:44:50;17.20;99.90
52965;DHT22;42923;53.220;6.528;2023-10-09T14:47:15;17.20;99.90
52965;DHT22;42923;53.220;6.528;2023-10-09T14:49:47;17.20;99.90
52965;DHT22;42923;53.220;6.528;2023-10-09T14:52:14;17.20;99.90
52965;DHT22;42923;53.220;6.528;2023-10-09T14:54:44;17.20;99.90
52965;DHT22;42923;53.220;6.528;2023-10-09T14:57:11;17.10;99.90
52965;DHT22;42923;53.220;6.528;2023-10-09T14:59:37;17.10;99.90
52965;DHT22;42923;53.220;6.528;2023-10-09T15:02:03;17.10;99.90
52965;DHT22;42923;53.220;6.528;2023-10-09T15:04:34;17.10;99.90
52965;DHT22;42923;53.220;6.528;2023-10-09T15:07:03;17.10;99.90
52965;DHT22;42923;53.220;6.528;2023-10-09T15:09:33;17.10;99.90
52965;DHT22;42923;53.220;6.528;2023-10-09T15:12:01;17.10;99.90
52965;DHT22;42923;53.220;6.528;2023-10-09T15:14:27;17.10;99.90
52965;DHT22;42923;53.220;6.528;2023-10-09T15:16:53;17.10;99.90
52965;DHT22;42923;53.220;6.528;2023-10-09T15:19:19;17.10;99.90
52965;DHT22;42923;53.220;6.528;2023-10-09T15:21:45;17.10;99.90
52965;DHT22;42923;53.220;6.528;2023-10-09T15:24:12;17.20;99.90
52965;DHT22;42923;53.220;6.528;2023-10-09T15:26:45;17.20;99.90
52965;DHT22;42923;53.220;6.528;2023-10-09T15:29:20;17.20;99.90
52965;DHT22;42923;53.220;6.528;2023-10-09T15:31:51;17.20;99.90
52965;DHT22;42923;53.220;6.528;2023-10-09T15:34:17;17.20;99.90
52965;DHT22;42923;53.220;6.528;2023-10-09T15:36:45;17.20;99.90
52965;DHT22;42923;53.220;6.528;2023-10-09T15:39:14;17.20;99.90
52965;DHT22;42923;53.220;6.528;2023-10-09T15:41:45;17.20;99.90
52965;DHT22;42923;53.220;6.528;2023-10-09T15:44:11;17.10;99.90
52965;DHT22;42923;53.220;6.528;2023-10-09T15:46:39;17.10;99.90
52965;DHT22;42923;53.220;6.528;2023-10-09T15:49:05;17.00;99.90
52965;DHT22;42923;53.220;6.528;2023-10-09T15:51:35;17.00;99.90
52965;DHT22;42923;53.220;6.528;2023-10-09T15:54:01;17.00;99.90
52965;DHT22;42923;53.220;6.528;2023-10-09T15:56:26;17.00;99.90
52965;DHT22;42923;53.220;6.528;2023-10-09T15:58:52;16.90;99.90
52965;DHT22;42923;53.220;6.528;2023-10-09T16:01:19;16.90;99.90
52965;DHT22;42923;53.220;6.528;2023-10-09T16:03:46;16.80;99.90
52965;DHT22;42923;53.220;6.528;2023-10-09T16:06:17;16.80;99.90
52965;DHT22;42923;53.220;6.528;2023-10-09T16:08:44;16.80;99.90
52965;DHT22;42923;53.220;6.528;2023-10-09T16:11:20;16.80;99.90
52965;DHT22;42923;53.220;6.528;2023-10-09T16:13:52;16.80;99.90
52965;DHT22;42923;53.220;6.528;2023-10-09T16:16:25;16.80;99.90
52965;DHT22;42923;53.220;6.528;2023-10-09T16:18:51;16.70;99.90
52965;DHT22;42923;53.220;6.528;2023-10-09T16:21:17;16.70;99.90
52965;DHT22;42923;53.220;6.528;2023-10-09T16:23:43;16.70;99.90
52965;DHT22;42923;53.220;6.528;2023-10-09T16:26:09;16.70;99.90
52965;DHT22;42923;53.220;6.528;2023-10-09T16:28:35;16.70;99.90
52965;DHT22;42923;53.220;6.528;2023-10-09T16:31:02;16.70;99.90
52965;DHT22;42923;53.220;6.528;2023-10-09T16:33:27;16.60;99.90